createdAt,value
2022-09-03T00:00:19.550Z,4.00
2022-09-03T00:03:00.753Z,3.70
2022-09-03T00:05:48.503Z,3.80
2022-09-03T00:08:38.019Z,3.60
2022-09-03T00:11:19.789Z,3.60
2022-09-03T00:13:59.961Z,3.70
2022-09-03T00:16:39.559Z,3.40
2022-09-03T00:19:10.524Z,3.50
2022-09-03T00:21:48.910Z,3.50
2022-09-03T00:24:24.336Z,3.90
2022-09-03T00:26:59.330Z,3.20
2022-09-03T00:29:36.564Z,3.70
2022-09-03T00:32:12.219Z,3.40
2022-09-03T00:34:46.543Z,3.70
2022-09-03T00:37:20.050Z,3.60
2022-09-03T00:39:50.862Z,3.60
2022-09-03T00:42:33.961Z,4.00
2022-09-03T00:45:32.739Z,4.40
2022-09-03T00:48:27.990Z,3.50
2022-09-03T00:51:25.534Z,4.00
2022-09-03T00:54:25.449Z,3.60
2022-09-03T00:57:05.519Z,3.70
2022-09-03T00:59:47.296Z,3.80
2022-09-03T01:02:52.031Z,3.40
2022-09-03T01:05:37.756Z,3.80
2022-09-03T01:08:22.435Z,3.50
2022-09-03T01:11:03.838Z,3.80
2022-09-03T01:16:35.542Z,3.70
2022-09-03T01:19:15.103Z,3.50
2022-09-03T01:22:21.056Z,4.00
2022-09-03T01:25:17.689Z,3.60
2022-09-03T01:28:09.192Z,3.50
2022-09-03T01:30:47.315Z,3.60
2022-09-03T01:33:26.089Z,4.70
2022-09-03T01:36:07.827Z,3.50
2022-09-03T01:38:49.402Z,3.90
2022-09-03T01:42:01.966Z,3.90
2022-09-03T01:45:12.156Z,3.60
2022-09-03T01:48:06.193Z,4.00
2022-09-03T01:50:45.421Z,3.80
2022-09-03T01:53:36.917Z,4.10
2022-09-03T01:56:23.769Z,4.00
2022-09-03T01:59:03.751Z,3.70
2022-09-03T02:01:39.120Z,4.00
2022-09-03T02:04:20.488Z,3.40
2022-09-03T02:06:55.490Z,3.80
2022-09-03T02:09:32.624Z,3.70
2022-09-03T02:12:15.821Z,3.60
2022-09-03T02:14:49.288Z,3.70
2022-09-03T02:17:19.810Z,3.70
2022-09-03T02:20:21.251Z,4.10
2022-09-03T02:23:01.985Z,4.10
2022-09-03T02:25:57.082Z,3.70
2022-09-03T02:28:32.870Z,4.30
2022-09-03T02:31:06.186Z,4.10
2022-09-03T02:33:50.191Z,3.60
2022-09-03T02:36:45.904Z,3.70
2022-09-03T02:39:28.843Z,4.30
2022-09-03T02:42:07.372Z,3.40
2022-09-03T02:44:46.817Z,4.00
2022-09-03T02:47:20.671Z,3.70
2022-09-03T02:49:54.389Z,3.80
2022-09-03T02:52:27.803Z,3.90
2022-09-03T02:55:01.120Z,4.10
2022-09-03T02:57:34.005Z,3.80
2022-09-03T03:00:05.520Z,4.10
2022-09-03T03:02:42.298Z,4.00
2022-09-03T03:05:46.200Z,4.30
2022-09-03T03:08:21.460Z,3.70
2022-09-03T03:10:56.905Z,4.10
2022-09-03T03:13:42.150Z,3.70
2022-09-03T03:16:15.082Z,3.60
2022-09-03T03:19:08.175Z,3.80
2022-09-03T03:21:49.450Z,4.00
2022-09-03T03:24:22.621Z,4.30
2022-09-03T03:27:14.897Z,3.80
2022-09-03T03:29:45.461Z,4.00
2022-09-03T03:32:16.802Z,3.80
2022-09-03T03:34:50.414Z,4.10
2022-09-03T03:37:21.177Z,4.00
2022-09-03T03:39:52.167Z,4.30
2022-09-03T03:42:43.387Z,3.60
2022-09-03T03:45:24.464Z,4.10
2022-09-03T03:48:02.454Z,4.20
2022-09-03T03:50:33.411Z,3.90
2022-09-03T03:53:13.323Z,4.30
2022-09-03T03:56:02.565Z,3.90
2022-09-03T03:58:44.315Z,3.80
2022-09-03T04:01:19.306Z,4.00
2022-09-03T04:03:50.039Z,4.00
2022-09-03T04:06:40.891Z,4.10
2022-09-03T04:09:22.513Z,3.80
2022-09-03T04:11:53.274Z,3.90
2022-09-03T04:14:27.295Z,4.20
2022-09-03T04:19:38.496Z,3.90
2022-09-03T04:22:19.159Z,5.00
2022-09-03T04:24:49.934Z,4.30
2022-09-03T04:27:31.734Z,4.10
2022-09-03T04:30:02.242Z,3.70
2022-09-03T04:32:56.167Z,4.20
2022-09-03T04:35:38.201Z,3.90
2022-09-03T04:38:31.978Z,4.20
2022-09-03T04:41:15.987Z,4.30
2022-09-03T04:43:54.186Z,4.00
2022-09-03T04:46:27.077Z,4.40
2022-09-03T04:48:58.015Z,4.00
2022-09-03T04:51:49.018Z,4.10
2022-09-03T04:54:22.790Z,4.80
2022-09-03T04:57:15.539Z,4.30
2022-09-03T05:00:11.342Z,3.90
2022-09-03T05:02:41.946Z,4.00
2022-09-03T05:05:33.697Z,4.30
2022-09-03T05:08:05.898Z,4.40
2022-09-03T05:10:46.540Z,4.30
2022-09-03T05:13:17.985Z,4.70
2022-09-03T05:15:48.640Z,4.30
2022-09-03T05:18:19.450Z,4.60
2022-09-03T05:21:07.790Z,3.90
2022-09-03T05:23:50.329Z,4.80
2022-09-03T05:26:23.133Z,5.20
2022-09-03T05:28:57.148Z,4.60
2022-09-03T05:31:31.476Z,4.70
2022-09-03T05:34:04.823Z,5.10
2022-09-03T05:36:50.309Z,5.10
2022-09-03T05:39:32.212Z,4.70
2022-09-03T05:42:23.166Z,4.90
2022-09-03T05:45:03.966Z,5.10
2022-09-03T05:47:54.837Z,5.40
2022-09-03T05:50:45.639Z,5.30
2022-09-03T05:53:26.438Z,4.90
2022-09-03T05:56:19.411Z,5.30
2022-09-03T05:58:54.986Z,5.00
2022-09-03T06:01:50.955Z,5.40
2022-09-03T06:04:32.967Z,5.60
2022-09-03T06:07:06.424Z,5.30
2022-09-03T06:09:57.259Z,4.90
2022-09-03T06:12:30.869Z,5.30
2022-09-03T06:15:05.776Z,5.20
2022-09-03T06:17:56.608Z,5.50
2022-09-03T06:20:29.073Z,5.60
2022-09-03T06:23:18.537Z,5.30
2022-09-03T06:26:10.839Z,4.80
2022-09-03T06:28:44.511Z,6.30
2022-09-03T06:31:20.176Z,5.30
2022-09-03T06:33:54.946Z,5.00
2022-09-03T06:36:46.069Z,4.60
2022-09-03T06:39:16.790Z,4.90
2022-09-03T06:41:55.153Z,5.20
2022-09-03T06:44:30.149Z,5.00
2022-09-03T06:47:03.719Z,4.70
2022-09-03T06:49:38.745Z,5.00
2022-09-03T06:52:30.071Z,4.90
2022-09-03T06:55:01.104Z,5.30
2022-09-03T06:57:31.708Z,5.00
2022-09-03T07:00:17.387Z,5.40
2022-09-03T07:03:00.131Z,5.80
2022-09-03T07:05:31.756Z,5.40
2022-09-03T07:08:02.425Z,5.70
2022-09-03T07:10:35.007Z,5.70
2022-09-03T07:13:08.708Z,6.00
2022-09-03T07:15:42.374Z,5.90
2022-09-03T07:18:33.862Z,6.40
2022-09-03T07:23:35.243Z,6.80
2022-09-03T07:26:08.536Z,6.90
2022-09-03T07:28:40.707Z,6.40
2022-09-03T07:31:14.960Z,6.50
2022-09-03T07:33:47.865Z,6.80
2022-09-03T07:36:21.027Z,6.80
2022-09-03T07:38:52.182Z,7.10
2022-09-03T07:41:28.522Z,7.00
2022-09-03T07:44:05.588Z,7.40
2022-09-03T07:46:40.334Z,7.70
2022-09-03T07:49:12.540Z,7.90
2022-09-03T07:51:46.588Z,7.40
2022-09-03T07:54:17.272Z,8.00
2022-09-03T07:56:50.660Z,8.30
2022-09-03T07:59:23.105Z,7.80
2022-09-03T08:02:13.922Z,8.30
2022-09-03T08:04:45.445Z,9.00
2022-09-03T08:07:18.545Z,8.30
2022-09-03T08:09:49.874Z,8.20
2022-09-03T08:12:20.761Z,9.10
2022-09-03T08:14:54.435Z,8.40
2022-09-03T08:17:28.407Z,8.10
2022-09-03T08:20:02.822Z,8.50
2022-09-03T08:22:37.528Z,8.60
2022-09-03T08:25:09.157Z,8.80
2022-09-03T08:27:55.139Z,8.60
2022-09-03T08:30:34.814Z,8.60
2022-09-03T08:33:07.093Z,9.60
2022-09-03T08:35:40.100Z,9.60
2022-09-03T08:38:19.551Z,9.00
2022-09-03T08:40:50.570Z,9.90
2022-09-03T08:43:23.911Z,9.30
2022-09-03T08:45:54.665Z,10.20
2022-09-03T08:48:28.485Z,9.60
2022-09-03T08:51:05.409Z,10.30
2022-09-03T08:53:46.380Z,10.70
2022-09-03T08:56:40.928Z,11.90
2022-09-03T08:59:14.563Z,10.50
2022-09-03T09:01:58.031Z,10.80
2022-09-03T09:04:56.402Z,10.50
2022-09-03T09:07:33.534Z,12.00
2022-09-03T09:10:11.619Z,10.30
2022-09-03T09:13:00.000Z,9.60
2022-09-03T09:15:42.105Z,10.30
2022-09-03T09:18:21.959Z,10.70
2022-09-03T09:21:09.533Z,11.10
2022-09-03T09:23:45.656Z,10.60
2022-09-03T09:26:27.134Z,10.00
2022-09-03T09:29:04.444Z,11.90
2022-09-03T09:31:45.275Z,11.30
2022-09-03T09:34:19.641Z,12.30
2022-09-03T09:36:55.408Z,10.90
2022-09-03T09:39:26.433Z,11.40
2022-09-03T09:42:09.515Z,9.80
2022-09-03T09:44:41.668Z,11.10
2022-09-03T09:47:15.473Z,11.60
2022-09-03T09:49:56.079Z,10.20
2022-09-03T09:52:29.381Z,11.40
2022-09-03T09:55:12.856Z,11.00
2022-09-03T09:57:43.518Z,10.40
2022-09-03T10:00:17.688Z,11.90
2022-09-03T10:02:54.434Z,11.10
2022-09-03T10:05:28.346Z,11.10
2022-09-03T10:08:00.926Z,10.30
2022-09-03T10:10:35.020Z,9.90
2022-09-03T10:13:09.481Z,8.30
2022-09-03T10:15:46.423Z,8.90
2022-09-03T10:18:28.617Z,10.40
2022-09-03T10:21:06.256Z,9.30
2022-09-03T10:23:51.389Z,8.20
2022-09-03T10:26:29.128Z,8.10
2022-09-03T10:29:05.790Z,7.20
2022-09-03T10:31:48.585Z,6.70
2022-09-03T10:34:35.063Z,6.40
2022-09-03T10:37:19.709Z,6.50
2022-09-03T10:40:12.981Z,5.90
2022-09-03T10:42:50.412Z,5.80
2022-09-03T10:45:33.703Z,5.20
2022-09-03T10:48:39.670Z,5.80
2022-09-03T10:51:18.189Z,5.00
2022-09-03T10:54:03.181Z,4.70
2022-09-03T10:56:43.163Z,4.30
2022-09-03T10:59:37.680Z,4.60
2022-09-03T11:02:22.692Z,4.70
2022-09-03T11:05:02.930Z,4.20
2022-09-03T11:07:38.818Z,4.10
2022-09-03T11:10:20.758Z,4.20
2022-09-03T11:13:03.681Z,4.30
2022-09-03T11:15:37.852Z,4.20
2022-09-03T11:18:17.912Z,4.00
2022-09-03T11:20:52.304Z,4.30
2022-09-03T11:23:25.549Z,4.20
2022-09-03T11:26:02.373Z,4.00
2022-09-03T11:28:45.443Z,4.50
2022-09-03T11:31:26.227Z,2.90
2022-09-03T11:36:35.964Z,3.20
2022-09-03T11:39:21.899Z,3.40
2022-09-03T11:42:07.736Z,3.40
2022-09-03T11:44:47.967Z,3.80
2022-09-03T11:47:38.189Z,3.30
2022-09-03T11:50:21.181Z,3.10
2022-09-03T11:52:56.967Z,3.10
2022-09-03T11:55:43.317Z,3.40
2022-09-03T11:58:22.469Z,3.00
2022-09-03T12:00:54.216Z,2.40
2022-09-03T12:03:30.253Z,2.40
2022-09-03T12:06:33.245Z,2.90
2022-09-03T12:09:16.969Z,3.20
2022-09-03T12:12:01.985Z,3.20
2022-09-03T12:14:40.397Z,3.20
2022-09-03T12:17:24.392Z,2.70
2022-09-03T12:19:57.680Z,2.50
2022-09-03T12:22:31.226Z,2.50
2022-09-03T12:25:13.108Z,2.30
2022-09-03T12:27:46.517Z,2.40
2022-09-03T12:30:20.804Z,1.90
2022-09-03T12:32:52.275Z,1.60
2022-09-03T12:38:23.942Z,2.00
2022-09-03T12:43:54.712Z,2.30
2022-09-03T12:46:33.768Z,2.30
2022-09-03T12:52:06.768Z,2.20
2022-09-03T12:54:45.829Z,2.40
2022-09-03T12:57:26.924Z,2.40
2022-09-03T13:00:02.329Z,2.40
2022-09-03T13:02:38.397Z,2.80
2022-09-03T13:05:18.634Z,2.60
2022-09-03T13:07:53.035Z,2.70
2022-09-03T13:10:30.001Z,3.00
2022-09-03T13:13:04.431Z,2.30
2022-09-03T13:15:35.200Z,2.60
2022-09-03T13:18:27.178Z,2.70
2022-09-03T13:21:13.388Z,2.80
2022-09-03T13:23:59.825Z,2.90
2022-09-03T13:26:40.049Z,2.90
2022-09-03T13:29:25.485Z,3.80
2022-09-03T13:32:03.908Z,4.10
2022-09-03T13:34:41.732Z,3.90
2022-09-03T13:37:27.504Z,3.60
2022-09-03T13:40:01.280Z,3.50
2022-09-03T13:42:39.611Z,3.30
2022-09-03T13:45:29.760Z,3.70
2022-09-03T13:48:25.571Z,3.00
2022-09-03T13:51:04.726Z,3.80
2022-09-03T13:53:47.941Z,3.20
2022-09-03T13:56:29.107Z,3.40
2022-09-03T13:59:08.649Z,3.20
2022-09-03T14:01:56.949Z,5.30
2022-09-03T14:04:36.271Z,4.10
2022-09-03T14:07:14.777Z,3.90
2022-09-03T14:09:59.928Z,3.60
2022-09-03T14:12:44.237Z,3.90
2022-09-03T14:15:25.901Z,4.30
2022-09-03T14:18:04.577Z,4.20
2022-09-03T14:20:42.489Z,4.50
2022-09-03T14:23:30.104Z,3.90
2022-09-03T14:26:04.748Z,5.30
2022-09-03T14:28:37.800Z,4.90
2022-09-03T14:31:20.174Z,4.80
2022-09-03T14:34:00.507Z,5.60
2022-09-03T14:36:36.981Z,5.10
2022-09-03T14:39:28.701Z,6.10
2022-09-03T14:42:23.646Z,5.60
2022-09-03T14:45:27.108Z,5.30
2022-09-03T14:48:11.350Z,6.00
2022-09-03T14:50:59.373Z,5.70
2022-09-03T14:54:03.653Z,5.90
2022-09-03T14:56:48.548Z,6.70
2022-09-03T14:59:43.803Z,6.60
2022-09-03T15:02:46.267Z,5.90
2022-09-03T15:05:29.349Z,7.40
2022-09-03T15:08:09.312Z,6.60
2022-09-03T15:10:46.310Z,6.60
2022-09-03T15:13:21.306Z,7.00
2022-09-03T15:16:06.247Z,6.80
2022-09-03T15:18:51.446Z,8.60
2022-09-03T15:21:34.298Z,7.80
2022-09-03T15:24:16.619Z,7.60
2022-09-03T15:27:03.053Z,6.80
2022-09-03T15:29:44.829Z,8.00
2022-09-03T15:32:24.619Z,8.70
2022-09-03T15:35:08.285Z,7.60
2022-09-03T15:37:45.474Z,8.50
2022-09-03T15:40:28.708Z,7.80
2022-09-03T15:43:06.711Z,7.90
2022-09-03T15:45:51.116Z,7.30
2022-09-03T15:48:31.970Z,7.60
2022-09-03T15:51:11.829Z,8.10
2022-09-03T15:53:52.623Z,8.10
2022-09-03T15:56:29.404Z,8.00
2022-09-03T15:59:08.162Z,7.50
2022-09-03T16:01:46.924Z,7.90
2022-09-03T16:04:36.985Z,7.90
2022-09-03T16:07:17.815Z,7.30
2022-09-03T16:10:23.691Z,8.10
2022-09-03T16:13:02.216Z,7.70
2022-09-03T16:15:39.882Z,7.70
2022-09-03T16:18:24.014Z,8.10
2022-09-03T16:21:02.694Z,8.00
2022-09-03T16:23:39.627Z,7.80
2022-09-03T16:26:16.089Z,8.60
2022-09-03T16:28:53.824Z,8.20
2022-09-03T16:31:40.049Z,8.00
2022-09-03T16:34:18.990Z,6.60
2022-09-03T16:36:59.730Z,5.60
2022-09-03T16:39:47.528Z,6.10
2022-09-03T16:42:29.174Z,6.30
2022-09-03T16:45:11.839Z,6.00
2022-09-03T16:47:55.535Z,5.50
2022-09-03T16:50:40.751Z,5.60
2022-09-03T16:53:17.639Z,5.50
2022-09-03T16:56:01.150Z,5.10
2022-09-03T16:58:42.861Z,6.00
2022-09-03T17:01:25.666Z,5.60
2022-09-03T17:04:32.399Z,5.50
2022-09-03T17:07:14.283Z,5.40
2022-09-03T17:09:58.599Z,6.40
2022-09-03T17:12:38.664Z,4.80
2022-09-03T17:15:40.902Z,5.40
2022-09-03T17:18:31.679Z,6.40
2022-09-03T17:21:13.339Z,5.80
2022-09-03T17:24:12.731Z,5.90
2022-09-03T17:26:55.959Z,5.60
2022-09-03T17:29:43.405Z,4.80
2022-09-03T17:32:28.020Z,4.80
2022-09-03T17:35:09.074Z,4.50
2022-09-03T17:37:52.298Z,4.50
2022-09-03T17:40:29.915Z,4.40
2022-09-03T17:43:07.245Z,4.30
2022-09-03T17:45:50.434Z,4.60
2022-09-03T17:48:42.112Z,4.60
2022-09-03T17:51:18.827Z,5.80
2022-09-03T17:53:53.846Z,4.80
2022-09-03T17:56:30.868Z,5.40
2022-09-03T17:59:11.121Z,5.30
2022-09-03T18:01:53.716Z,4.70
2022-09-03T18:04:40.122Z,4.50
2022-09-03T18:07:23.529Z,4.80
2022-09-03T18:10:03.723Z,4.70
2022-09-03T18:12:44.889Z,4.80
2022-09-03T18:15:37.666Z,4.50
2022-09-03T18:18:12.661Z,4.60
2022-09-03T18:21:23.986Z,5.40
2022-09-03T18:24:21.877Z,4.60
2022-09-03T18:27:15.785Z,4.70
2022-09-03T18:30:12.908Z,4.60
2022-09-03T18:33:01.365Z,4.70
2022-09-03T18:35:51.091Z,4.80
2022-09-03T18:38:45.346Z,5.40
2022-09-03T18:41:59.797Z,4.80
2022-09-03T18:45:20.221Z,5.10
2022-09-03T18:48:22.584Z,5.30
2022-09-03T18:51:17.494Z,5.20
2022-09-03T18:54:16.864Z,5.40
2022-09-03T18:57:08.026Z,5.20
2022-09-03T19:00:30.315Z,5.20
2022-09-03T19:03:41.576Z,5.40
2022-09-03T19:06:44.988Z,5.10
2022-09-03T19:09:55.813Z,5.00
2022-09-03T19:12:59.433Z,5.50
2022-09-03T19:15:53.132Z,4.70
2022-09-03T19:19:10.838Z,4.60
2022-09-03T19:22:08.555Z,4.80
2022-09-03T19:24:56.876Z,4.90
2022-09-03T19:28:00.662Z,5.10
2022-09-03T19:30:55.424Z,4.90
2022-09-03T19:33:53.028Z,5.20
2022-09-03T19:36:48.398Z,5.20
2022-09-03T19:39:58.503Z,5.50
2022-09-03T19:43:06.005Z,5.20
2022-09-03T19:46:11.977Z,5.40
2022-09-03T19:49:14.877Z,4.80
2022-09-03T19:52:14.101Z,4.50
2022-09-03T19:55:04.079Z,4.70
2022-09-03T19:57:56.089Z,4.80
2022-09-03T20:00:56.420Z,4.60
2022-09-03T20:03:45.421Z,5.30
2022-09-03T20:06:35.865Z,5.00
2022-09-03T20:09:28.238Z,4.40
2022-09-03T20:12:08.420Z,4.70
2022-09-03T20:14:41.268Z,5.20
2022-09-03T20:17:21.691Z,4.90
2022-09-03T20:20:13.056Z,5.30
2022-09-03T20:22:55.318Z,4.70
2022-09-03T20:25:50.326Z,4.70
2022-09-03T20:28:36.411Z,4.90
2022-09-03T20:31:16.752Z,4.70
2022-09-03T20:34:10.760Z,5.00
2022-09-03T20:36:54.423Z,5.20
2022-09-03T20:39:42.049Z,4.90
2022-09-03T20:42:29.514Z,5.80
2022-09-03T20:45:25.201Z,5.10
2022-09-03T20:48:22.089Z,5.60
2022-09-03T20:51:12.391Z,5.70
2022-09-03T20:54:03.858Z,5.10
2022-09-03T20:57:08.104Z,5.60
2022-09-03T20:59:51.742Z,5.70
2022-09-03T21:02:30.458Z,5.90
2022-09-03T21:05:26.716Z,5.70
2022-09-03T21:08:11.351Z,5.40
2022-09-03T21:11:07.378Z,5.30
2022-09-03T21:14:07.248Z,5.80
2022-09-03T21:16:49.954Z,5.30
2022-09-03T21:19:40.145Z,5.40
2022-09-03T21:22:25.363Z,5.60
2022-09-03T21:25:04.452Z,5.20
2022-09-03T21:28:01.216Z,6.00
2022-09-03T21:30:59.205Z,6.00
2022-09-03T21:33:54.112Z,6.30
2022-09-03T21:36:47.068Z,5.40
2022-09-03T21:39:44.399Z,5.40
2022-09-03T21:42:19.175Z,5.60
2022-09-03T21:45:20.618Z,5.40
2022-09-03T21:48:18.307Z,5.50
2022-09-03T21:50:57.801Z,5.10
2022-09-03T21:53:37.446Z,5.90
2022-09-03T21:56:30.345Z,5.30
2022-09-03T21:59:21.883Z,5.40
2022-09-03T22:04:30.818Z,5.80
2022-09-03T22:07:24.174Z,5.50
2022-09-03T22:10:16.673Z,5.40
2022-09-03T22:12:57.761Z,5.50
2022-09-03T22:15:33.266Z,6.10
2022-09-03T22:18:07.472Z,6.10
2022-09-03T22:20:40.313Z,5.80
2022-09-03T22:23:29.589Z,5.60
2022-09-03T22:26:24.113Z,6.50
2022-09-03T22:29:06.973Z,5.90
2022-09-03T22:31:59.798Z,5.70
2022-09-03T22:34:48.329Z,5.60
2022-09-03T22:37:43.365Z,4.80
2022-09-03T22:40:25.845Z,5.40
2022-09-03T22:43:24.851Z,5.50
2022-09-03T22:46:08.395Z,6.00
2022-09-03T22:49:07.898Z,5.50
2022-09-03T22:51:54.012Z,4.70
2022-09-03T22:54:40.390Z,5.20
2022-09-03T22:57:16.950Z,5.20
2022-09-03T22:59:57.424Z,5.20
2022-09-03T23:02:55.671Z,5.70
2022-09-03T23:05:45.469Z,5.00
2022-09-03T23:08:35.304Z,5.00
2022-09-03T23:11:30.254Z,5.20
2022-09-03T23:14:14.140Z,5.30
2022-09-03T23:19:47.947Z,4.60
2022-09-03T23:22:25.519Z,5.60
2022-09-03T23:25:12.309Z,5.30
2022-09-03T23:28:02.066Z,5.00
2022-09-03T23:30:35.099Z,5.10
2022-09-03T23:33:09.389Z,5.00
2022-09-03T23:35:53.619Z,5.10
2022-09-03T23:38:48.020Z,5.60
2022-09-03T23:41:47.182Z,5.60
2022-09-03T23:44:38.440Z,5.20
2022-09-03T23:47:40.876Z,4.80
2022-09-03T23:50:27.090Z,5.00
2022-09-03T23:53:11.982Z,5.00
2022-09-03T23:56:17.091Z,5.30
2022-09-03T23:59:10.073Z,5.10
